Time;durP1;ratioP1;P1;durP2;ratioP2;P2;SDS_P1;SDS_P2;PMS_P1;PMS_P2;Temp;Humidity;BMP_temperature;BMP_pressure;BME280_temperature;BME280_humidity;BME280_pressure;Samples;Min_cycle;Max_cycle;Signal;HPM_P1;HPM_P2
2022/02/06 00:02:27;;;;;;;11.03;1.30;;;;;;;-145.69;98.86;73257.38;5093112;28;20198;-78
2022/02/06 00:04:54;;;;;;;13.00;1.63;;;;;;;-145.69;97.42;73229.50;5093024;28;20230;-79
2022/02/06 00:07:22;;;;;;;6.67;1.20;;;;;;;-145.69;97.18;73233.50;5093002;28;20198;-79
2022/02/06 00:09:48;;;;;;;2.73;1.30;;;;;;;-145.69;98.31;73251.41;5092996;28;20198;-79
2022/02/06 00:12:16;;;;;;;6.03;1.53;;;;;;;-145.69;100.00;73275.28;5092870;28;20202;-79
2022/02/06 00:14:42;;;;;;;3.37;1.23;;;;;;;-145.69;100.00;73289.22;5092753;28;20205;-78
2022/02/06 00:17:09;;;;;;;3.37;1.70;;;;;;;-145.69;100.00;73287.25;5093150;28;20194;-79
2022/02/06 00:19:38;;;;;;;4.53;1.53;;;;;;;-145.69;100.00;73303.16;5093057;28;20205;-79
2022/02/06 00:22:07;;;;;;;6.53;1.77;;;;;;;-145.69;100.00;73291.22;5098316;28;20193;-79
2022/02/06 00:24:41;;;;;;;6.97;1.43;;;;;;;-145.69;100.00;73291.22;5109336;28;20222;-79
2022/02/06 00:27:15;;;;;;;5.13;1.30;;;;;;;-145.69;100.00;73293.22;5092717;28;20496;-79
2022/02/06 00:29:51;;;;;;;9.27;1.70;;;;;;;-145.69;100.00;73289.22;5092876;28;20198;-79
2022/02/06 00:32:29;;;;;;;4.87;1.07;;;;;;;-145.69;100.00;73293.22;5091644;28;20714;-80
2022/02/06 00:35:24;;;;;;;8.70;1.23;;;;;;;-145.69;100.00;73277.28;5092784;28;20206;-79
2022/02/06 00:38:09;;;;;;;4.93;1.30;;;;;;;-145.69;100.00;73259.38;5092623;28;20652;-79
2022/02/06 00:41:00;;;;;;;8.03;1.73;;;;;;;-145.69;99.24;73225.53;5092453;28;20568;-79
2022/02/06 00:43:28;;;;;;;9.83;1.80;;;;;;;-145.69;98.08;73209.59;5094099;28;20256;-79
2022/02/06 00:45:55;;;;;;;10.90;1.40;;;;;;;-145.69;97.50;73201.63;5095385;28;20205;-79
2022/02/06 00:48:22;;;;;;;6.47;1.30;;;;;;;-145.69;97.27;73197.66;5096832;28;20255;-79
2022/02/06 00:50:58;;;;;;;8.03;1.40;;;;;;;-145.69;96.86;73185.72;5096411;28;20230;-79
2022/02/06 00:53:25;;;;;;;8.07;1.20;;;;;;;-145.69;96.29;73173.75;5112495;28;20288;-80
2022/02/06 00:55:53;;;;;;;2.03;0.87;;;;;;;-145.69;96.72;73181.72;5096442;28;20197;-79
2022/02/06 00:58:19;;;;;;;6.23;1.23;;;;;;;-145.69;97.75;73189.69;5096070;28;20204;-79
2022/02/06 01:00:46;;;;;;;8.07;1.40;;;;;;;-145.69;96.91;73169.78;5096474;28;20225;-79
2022/02/06 01:03:12;;;;;;;8.53;1.20;;;;;;;-145.69;95.29;73161.81;5096336;28;20560;-79
2022/02/06 01:05:39;;;;;;;5.97;1.20;;;;;;;-145.69;95.51;73151.88;5096210;28;20665;-79
2022/02/06 01:08:05;;;;;;;2.47;1.20;;;;;;;-145.69;95.74;73159.84;5096205;28;20198;-79
2022/02/06 01:10:32;;;;;;;8.63;1.40;;;;;;;-145.69;95.86;73157.84;5096213;28;20194;-79
2022/02/06 01:13:12;;;;;;;11.10;1.10;;;;;;;-145.69;94.21;73137.94;5096109;28;20209;-79
2022/02/06 01:15:45;;;;;;;4.53;1.20;;;;;;;-145.69;94.52;73145.91;5096326;28;20202;-80
2022/02/06 01:18:19;;;;;;;11.40;2.57;;;;;;;-145.69;93.74;73133.94;5096062;28;20206;-80
2022/02/06 01:20:54;;;;;;;9.40;1.27;;;;;;;-145.69;94.65;73145.91;5095997;28;20198;-80
2022/02/06 01:23:25;;;;;;;11.30;1.90;;;;;;;-145.69;94.57;73147.88;5113877;28;20242;-80
2022/02/06 01:25:53;;;;;;;5.43;1.10;;;;;;;-145.69;95.12;73151.88;5116455;28;20197;-80
2022/02/06 01:28:28;;;;;;;6.30;1.17;;;;;;;-145.69;94.01;73141.91;5116057;28;20201;-80
2022/02/06 01:31:02;;;;;;;3.50;1.00;;;;;;;-145.69;93.90;73139.91;5116361;28;20197;-80
2022/02/06 01:33:34;;;;;;;4.90;1.37;;;;;;;-145.69;94.68;73147.88;5116097;28;20201;-81
2022/02/06 01:36:07;;;;;;;8.07;1.43;;;;;;;-145.69;95.34;73157.84;5116288;28;20212;-80
2022/02/06 01:38:47;;;;;;;8.17;1.20;;;;;;;-145.69;94.28;73145.91;5116255;28;20197;-80
2022/02/06 01:41:18;;;;;;;7.20;1.40;;;;;;;-145.69;94.94;73149.88;5116028;28;20203;-80
2022/02/06 01:43:51;;;;;;;7.47;1.43;;;;;;;-145.69;95.36;73157.84;5115880;28;20225;-80
2022/02/06 01:46:31;;;;;;;5.27;1.13;;;;;;;-145.69;95.65;73159.84;5115764;28;20208;-80
2022/02/06 02:03:02;;;;;;;10.90;1.90;;;;;;;-145.69;95.13;73149.88;5094841;28;20774;-80
2022/02/06 02:05:59;;;;;;;4.77;1.30;;;;;;;-145.69;95.15;73153.84;5095257;28;20614;-80
2022/02/06 02:09:07;;;;;;;4.70;1.43;;;;;;;-145.69;93.58;73133.94;5094998;28;20649;-80
2022/02/06 02:11:49;;;;;;;5.33;1.30;;;;;;;-145.69;93.53;73133.94;5094918;28;20292;-79
2022/02/06 02:17:29;;;;;;;6.73;1.30;;;;;;;-145.69;94.86;73151.88;5032480;28;20254;-79
2022/02/06 02:26:24;;;;;;;8.37;1.23;;;;;;;-145.69;93.77;73141.91;5066240;28;20225;-79
2022/02/06 02:43:18;;;;;;;6.77;1.30;;;;;;;-145.69;95.46;73143.91;5114799;28;20216;-79
2022/02/06 02:46:04;;;;;;;5.60;1.30;;;;;;;-145.69;94.54;73133.94;5114778;28;20549;-80
2022/02/06 02:48:30;;;;;;;9.20;1.40;;;;;;;-145.69;93.78;73126.00;5114628;28;20223;-79
2022/02/06 02:51:04;;;;;;;6.47;1.40;;;;;;;-145.69;94.90;73135.94;5114038;28;20226;-80
2022/02/06 02:53:35;;;;;;;7.37;1.10;;;;;;;-145.69;92.23;73102.09;5094314;28;20194;-80
2022/02/06 02:56:18;;;;;;;3.77;0.90;;;;;;;-145.69;93.78;73126.00;5093765;28;20256;-80
2022/02/06 02:58:53;;;;;;;7.47;1.40;;;;;;;-145.69;94.23;73131.97;5094093;28;20280;-80
2022/02/06 03:01:28;;;;;;;4.23;1.30;;;;;;;-145.69;93.72;73106.09;5093875;28;20194;-80
2022/02/06 03:03:57;;;;;;;5.53;1.30;;;;;;;-145.69;93.76;73102.09;5093841;28;20217;-80
2022/02/06 03:06:24;;;;;;;3.87;1.20;;;;;;;-145.69;93.43;73090.16;5093903;28;20225;-80
2022/02/06 03:08:52;;;;;;;4.10;1.70;;;;;;;-145.69;94.26;73100.09;5092913;28;20201;-80
2022/02/06 03:11:20;;;;;;;4.67;1.37;;;;;;;-145.69;93.72;73096.13;5093885;28;20205;-80
2022/02/06 03:13:54;;;;;;;6.07;1.30;;;;;;;-145.69;95.26;73088.16;5093704;28;20198;-80
2022/02/06 03:16:24;;;;;;;8.97;1.30;;;;;;;-145.69;91.28;73042.38;5093601;28;20652;-80
2022/02/06 03:18:58;;;;;;;4.73;1.13;;;;;;;-145.69;92.21;73052.34;5093916;28;20201;-80
2022/02/06 03:21:27;;;;;;;5.03;1.10;;;;;;;-145.69;91.29;73046.34;5094832;28;20202;-80
2022/02/06 03:23:58;;;;;;;6.83;0.93;;;;;;;-145.69;91.93;73042.38;5093489;28;20253;-80
2022/02/06 03:26:29;;;;;;;3.43;1.03;;;;;;;-145.69;91.92;73054.31;5093550;28;20209;-80
2022/02/06 03:28:56;;;;;;;4.43;1.10;;;;;;;-145.69;89.69;73022.47;5093725;28;20198;-78
2022/02/06 03:31:23;;;;;;;7.93;1.20;;;;;;;-145.69;88.73;73010.53;5093514;28;20198;-79
2022/02/06 03:33:50;;;;;;;5.13;1.13;;;;;;;-145.69;89.98;73024.47;5093526;28;20206;-78
2022/02/06 03:36:18;;;;;;;4.53;1.20;;;;;;;-145.69;90.76;73028.44;5093367;28;20240;-78
2022/02/06 03:38:47;;;;;;;9.73;1.30;;;;;;;-145.69;90.63;73020.47;5093270;28;20198;-78
2022/02/06 03:41:17;;;;;;;8.37;1.10;;;;;;;-145.69;89.66;72988.63;5093551;28;20206;-78
2022/02/06 03:43:54;;;;;;;4.27;1.10;;;;;;;-145.69;89.92;72994.59;5093333;28;20194;-78
2022/02/06 03:46:27;;;;;;;3.40;0.90;;;;;;;-145.69;88.70;72986.63;5093530;28;20288;-78
2022/02/06 03:49:03;;;;;;;6.77;0.90;;;;;;;-145.69;89.23;72984.66;5093269;28;20288;-78
2022/02/06 03:51:33;;;;;;;4.10;1.03;;;;;;;-145.69;89.48;72998.59;5105592;28;20233;-78
2022/02/06 03:54:00;;;;;;;6.00;1.33;;;;;;;-145.69;88.29;72980.66;5113509;28;20276;-78
2022/02/06 03:56:28;;;;;;;4.20;1.30;;;;;;;-145.69;89.29;72988.63;5113506;28;20201;-78
2022/02/06 03:59:00;;;;;;;3.17;1.00;;;;;;;-145.69;88.14;72966.72;5113509;28;20201;-78
2022/02/06 04:01:27;;;;;;;7.03;1.20;;;;;;;-145.69;89.12;72974.69;5113420;28;20574;-78
2022/02/06 04:03:53;;;;;;;5.30;1.40;;;;;;;-145.69;89.18;72982.66;5113227;28;20201;-78
2022/02/06 04:06:22;;;;;;;4.23;1.13;;;;;;;-145.69;88.53;72950.81;5113460;28;20224;-78
2022/02/06 04:08:51;;;;;;;2.63;1.10;;;;;;;-145.69;87.95;72950.81;5113481;28;20209;-78
2022/02/06 04:11:25;;;;;;;3.77;1.23;;;;;;;-145.69;87.54;72936.88;5113399;28;20207;-78
2022/02/06 04:14:04;;;;;;;4.80;1.20;;;;;;;-145.69;88.56;72938.88;5113272;28;20201;-78
2022/02/06 04:16:40;;;;;;;2.47;1.33;;;;;;;-145.69;87.93;72926.91;5113286;28;20208;-79
2022/02/06 04:19:17;;;;;;;4.67;0.93;;;;;;;-145.69;86.84;72916.97;5113331;28;20222;-78
2022/02/06 04:21:44;;;;;;;5.87;1.30;;;;;;;-145.69;86.46;72926.91;5103174;28;20263;-79
2022/02/06 04:24:10;;;;;;;2.63;1.10;;;;;;;-145.69;86.63;72924.94;5097061;28;20316;-79
2022/02/06 04:26:37;;;;;;;4.43;0.93;;;;;;;-145.69;84.40;72899.06;5096889;28;20198;-79
2022/02/06 04:29:04;;;;;;;4.00;1.13;;;;;;;-145.69;84.29;72899.06;5097096;28;20564;-78
2022/02/06 04:31:31;;;;;;;6.80;1.20;;;;;;;-145.69;82.75;72881.13;5097059;28;20198;-78
2022/02/06 04:33:58;;;;;;;10.17;1.30;;;;;;;-145.69;83.70;72875.16;5096890;28;20216;-78
2022/02/06 04:36:34;;;;;;;3.47;1.23;;;;;;;-145.69;83.53;72893.09;5096815;28;20201;-78
2022/02/06 04:39:12;;;;;;;2.67;1.00;;;;;;;-145.69;83.80;72887.09;5096698;28;20255;-79
2022/02/06 04:41:52;;;;;;;3.37;1.00;;;;;;;-145.69;81.13;72867.19;5099272;28;20204;-79
2022/02/06 04:44:44;;;;;;;4.73;0.83;;;;;;;-145.69;82.53;72869.19;5096752;28;20308;-80
2022/02/06 04:47:52;;;;;;;5.30;1.13;;;;;;;-145.69;83.56;72867.19;5096781;28;20661;-80
2022/02/06 04:50:50;;;;;;;2.87;0.97;;;;;;;-145.69;83.63;72879.16;5099653;28;20186;-80
2022/02/06 04:53:35;;;;;;;9.37;1.20;;;;;;;-145.69;83.00;72863.22;5100639;28;20665;-79
2022/02/06 05:15:18;;;;;;;6.17;1.10;;;;;;;-145.69;83.65;72861.22;5112742;28;20201;-80
2022/02/06 05:26:41;;;;;;;2.77;0.90;;;;;;;-145.69;83.68;72851.28;5116332;28;20251;-78
2022/02/06 05:29:19;;;;;;;5.47;1.30;;;;;;;-145.69;84.00;72855.25;5116078;27;20288;-80
2022/02/06 05:31:58;;;;;;;4.90;1.47;;;;;;;-145.69;84.25;72855.25;5115243;28;20246;-80
2022/02/06 05:34:25;;;;;;;8.47;1.40;;;;;;;-145.69;84.89;72865.22;5116204;28;20202;-81
2022/02/06 05:36:55;;;;;;;4.93;1.40;;;;;;;-145.69;84.60;72861.22;5115955;28;20209;-80
2022/02/06 05:39:26;;;;;;;3.97;1.10;;;;;;;-145.69;84.90;72851.28;5116077;28;20209;-80
2022/02/06 05:41:52;;;;;;;2.97;1.10;;;;;;;-145.69;83.84;72847.28;5115949;28;20201;-80
2022/02/06 05:44:19;;;;;;;2.63;0.90;;;;;;;-145.69;83.31;72847.28;5115951;28;20205;-77
2022/02/06 05:46:48;;;;;;;4.70;1.30;;;;;;;-145.69;83.93;72839.34;5115964;28;20202;-80
2022/02/06 05:49:14;;;;;;;4.57;1.20;;;;;;;-145.69;84.68;72843.31;5115936;28;20201;-80
2022/02/06 05:51:41;;;;;;;7.10;1.10;;;;;;;-145.69;84.32;72859.25;5096850;28;20230;-80
2022/02/06 05:54:07;;;;;;;2.57;1.00;;;;;;;-145.69;83.41;72851.28;5095218;28;20201;-79
2022/02/06 05:56:35;;;;;;;6.43;1.10;;;;;;;-145.69;84.12;72855.25;5095102;28;20259;-79
2022/02/06 05:59:03;;;;;;;6.43;1.40;;;;;;;-145.69;84.22;72863.22;5095378;28;20191;-80
2022/02/06 06:01:30;;;;;;;5.57;1.50;;;;;;;-145.69;85.02;72867.19;5095373;28;20208;-80
2022/02/06 06:03:56;;;;;;;5.30;0.90;;;;;;;-145.69;85.04;72873.19;5095108;28;20205;-80
2022/02/06 06:06:26;;;;;;;3.63;1.20;;;;;;;-145.69;85.48;72871.19;5095028;28;20234;-80
2022/02/06 06:08:52;;;;;;;6.30;1.00;;;;;;;-145.69;85.36;72867.19;5113646;28;20193;-81
2022/02/06 06:11:19;;;;;;;7.53;1.33;;;;;;;-145.69;86.07;72881.13;5115572;28;20220;-81
2022/02/06 06:13:47;;;;;;;6.60;1.10;;;;;;;-145.69;84.60;72861.22;5115388;28;20201;-80
2022/02/06 06:16:15;;;;;;;3.47;1.20;;;;;;;-145.69;85.81;72867.19;5115418;28;20212;-80
2022/02/06 06:18:42;;;;;;;2.43;1.03;;;;;;;-145.69;85.64;72861.22;5115053;28;20600;-81
2022/02/06 06:21:10;;;;;;;6.23;1.10;;;;;;;-145.69;86.02;72863.22;5101152;28;20248;-81
2022/02/06 06:23:42;;;;;;;4.77;1.10;;;;;;;-145.69;84.95;72851.28;5094774;28;20293;-80
2022/02/06 06:26:11;;;;;;;6.47;1.03;;;;;;;-145.69;85.63;72859.25;5094887;28;20237;-80
2022/02/06 06:28:37;;;;;;;5.43;1.40;;;;;;;-145.69;87.10;72873.19;5094737;28;20198;-81
2022/02/06 06:31:05;;;;;;;6.10;1.20;;;;;;;-145.69;86.31;72861.22;5094628;28;20694;-81
2022/02/06 06:33:31;;;;;;;8.03;1.13;;;;;;;-145.69;87.38;72863.22;5094499;28;20560;-80
2022/02/06 06:35:58;;;;;;;7.97;1.73;;;;;;;-145.69;86.84;72851.28;5093246;28;20915;-80
2022/02/06 06:38:25;;;;;;;11.53;1.50;;;;;;;-145.69;86.10;72859.25;5096931;28;20205;-80
2022/02/06 06:40:52;;;;;;;4.87;1.50;;;;;;;-145.69;86.29;72831.38;5094490;28;20194;-80
2022/02/06 06:43:19;;;;;;;4.53;1.33;;;;;;;-145.69;86.66;72829.38;5094051;28;20206;-80
2022/02/06 06:45:45;;;;;;;8.07;1.17;;;;;;;-145.69;87.11;72835.34;5094250;28;20588;-80
2022/02/06 06:48:22;;;;;;;6.40;1.27;;;;;;;-145.69;87.24;72827.38;5094231;28;20210;-80
2022/02/06 06:50:48;;;;;;;7.57;2.23;;;;;;;-145.69;87.70;72849.28;5107090;28;20228;-80
2022/02/06 06:53:15;;;;;;;8.73;2.33;;;;;;;-145.69;87.59;72843.31;5114718;28;20201;-80
2022/02/06 06:55:44;;;;;;;3.80;1.00;;;;;;;-145.69;87.57;72827.38;5114611;28;20201;-81
2022/02/06 06:58:15;;;;;;;2.83;1.10;;;;;;;-145.69;87.25;72815.44;5114561;28;20292;-80
2022/02/06 07:00:55;;;;;;;5.37;1.53;;;;;;;-145.69;87.95;72819.44;5114377;28;20193;-80
2022/02/06 07:03:24;;;;;;;2.43;1.30;;;;;;;-145.69;87.83;72821.41;5114596;28;20201;-80
2022/02/06 07:05:51;;;;;;;9.93;1.10;;;;;;;-145.69;87.04;72791.56;5114324;28;20232;-80
2022/02/06 07:08:19;;;;;;;4.90;1.30;;;;;;;-145.69;87.23;72797.53;5114284;28;20198;-80
2022/02/06 07:10:46;;;;;;;4.93;1.40;;;;;;;-145.69;87.09;72779.63;5114271;28;20228;-80
2022/02/06 07:13:13;;;;;;;9.00;1.40;;;;;;;-145.69;86.60;72759.72;5114197;28;20202;-81
2022/02/06 07:15:40;;;;;;;7.80;1.13;;;;;;;-145.69;87.30;72747.78;5114141;28;20667;-81
2022/02/06 07:18:06;;;;;;;8.80;1.53;;;;;;;-145.69;88.14;72757.72;5114358;28;20201;-80
2022/02/06 07:20:36;;;;;;;7.63;1.63;;;;;;;-145.69;88.77;72755.72;5103390;28;20202;-80
2022/02/06 07:23:03;;;;;;;7.40;1.77;;;;;;;-145.69;88.56;72751.75;5093657;28;20653;-80
2022/02/06 07:25:30;;;;;;;4.33;1.17;;;;;;;-145.69;87.93;72767.69;5093636;28;20222;-81
2022/02/06 07:27:56;;;;;;;7.75;1.50;;;;;;;-145.69;88.46;72771.66;5092395;28;20436;-81
2022/02/06 07:30:25;;;;;;;6.50;1.50;;;;;;;-145.69;87.53;72753.75;5093783;28;20244;-80
2022/02/06 07:32:52;;;;;;;6.20;1.47;;;;;;;-145.69;87.34;72741.78;5093471;28;20214;-81
2022/02/06 07:35:20;;;;;;;4.77;1.40;;;;;;;-145.69;88.06;72743.78;5093531;28;20206;-80
2022/02/06 07:37:54;;;;;;;7.10;1.40;;;;;;;-145.69;86.85;72731.84;5093352;28;20695;-81
2022/02/06 07:40:21;;;;;;;8.67;1.40;;;;;;;-145.69;87.51;72739.81;5093498;28;20205;-80
2022/02/06 07:42:47;;;;;;;8.63;1.83;;;;;;;-145.69;86.63;72735.81;5093444;28;20202;-80
2022/02/06 07:45:14;;;;;;;6.90;1.83;;;;;;;-145.69;86.55;72721.88;5093387;28;20233;-80
2022/02/06 07:47:43;;;;;;;4.40;1.10;;;;;;;-145.69;85.83;72711.94;5093531;28;20292;-80
2022/02/06 07:50:11;;;;;;;3.90;1.20;;;;;;;-145.69;85.88;72705.97;5102786;28;20229;-79
2022/02/06 07:52:38;;;;;;;7.93;1.40;;;;;;;-145.69;85.56;72703.97;5113662;28;20198;-79
2022/02/06 07:55:08;;;;;;;4.33;1.07;;;;;;;-145.69;85.75;72680.09;5113357;28;20198;-80
2022/02/06 07:57:35;;;;;;;4.23;1.30;;;;;;;-145.69;85.44;72668.16;5113571;28;20725;-80
2022/02/06 08:00:02;;;;;;;8.00;1.40;;;;;;;-145.69;86.25;72668.16;5113750;28;20605;-79
2022/02/06 08:02:29;;;;;;;3.37;1.20;;;;;;;-145.69;86.82;72672.13;5113668;28;20233;-80
2022/02/06 08:04:57;;;;;;;6.57;2.03;;;;;;;-145.69;85.92;72656.22;5113523;28;20205;-80
2022/02/06 08:07:23;;;;;;;3.73;1.20;;;;;;;-145.69;86.00;72642.28;5113431;28;20197;-79
2022/02/06 08:09:54;;;;;;;4.20;1.47;;;;;;;-145.69;85.14;72622.38;5113701;28;20198;-77
2022/02/06 08:12:27;;;;;;;5.03;1.20;;;;;;;-145.69;85.83;72626.34;5113863;28;20198;-80
2022/02/06 08:14:59;;;;;;;4.63;1.37;;;;;;;-145.69;85.21;72632.31;5113637;28;20193;-80
2022/02/06 08:17:28;;;;;;;7.07;1.17;;;;;;;-145.69;85.36;72640.28;5113456;28;20685;-78
2022/02/06 08:19:56;;;;;;;8.73;1.50;;;;;;;-145.69;84.78;72632.31;5105494;28;20194;-78
2022/02/06 08:22:24;;;;;;;7.67;1.30;;;;;;;-145.69;84.87;72628.34;5092513;28;20472;-80
2022/02/06 08:24:51;;;;;;;5.50;1.50;;;;;;;-145.69;84.58;72632.31;5093176;28;20202;-80
2022/02/06 08:27:18;;;;;;;5.90;1.40;;;;;;;-145.69;83.51;72632.31;5092644;28;20225;-77
2022/02/06 08:29:47;;;;;;;2.63;1.00;;;;;;;-145.69;83.50;72608.44;5092888;28;20198;-79
2022/02/06 08:32:14;;;;;;;3.37;1.13;;;;;;;-145.69;83.02;72606.44;5095882;28;20198;-80
2022/02/06 08:34:41;;;;;;;2.97;1.00;;;;;;;-145.69;81.20;72576.59;5113119;28;20205;-78
2022/02/06 08:37:08;;;;;;;4.07;1.57;;;;;;;-145.69;80.83;72570.63;5113279;28;20208;-81
2022/02/06 08:39:35;;;;;;;3.20;1.20;;;;;;;-145.69;80.41;72540.75;5110039;28;20194;-78
2022/02/06 08:42:06;;;;;;;4.33;1.13;;;;;;;-145.69;80.03;72534.78;5113154;28;20197;-80
2022/02/06 08:44:33;;;;;;;4.77;1.60;;;;;;;-145.69;81.22;72510.91;5113227;28;20258;-78
2022/02/06 08:47:01;;;;;;;6.33;1.40;;;;;;;-145.69;78.70;72504.94;5112861;28;20225;-80
2022/02/06 08:49:27;;;;;;;10.00;1.43;;;;;;;-145.69;79.39;72500.94;5110622;28;20812;-80
2022/02/06 08:51:54;;;;;;;17.73;1.30;;;;;;;-145.69;79.09;72512.91;5093561;28;20233;-78
2022/02/06 08:54:25;;;;;;;5.13;1.20;;;;;;;-145.69;79.38;72500.94;5092967;28;20202;-80
2022/02/06 08:56:51;;;;;;;5.03;1.20;;;;;;;-145.69;78.48;72508.91;5092689;28;20206;-78
2022/02/06 08:59:18;;;;;;;4.63;1.30;;;;;;;-145.69;78.65;72498.97;5092608;28;20202;-80
2022/02/06 09:01:44;;;;;;;8.73;1.13;;;;;;;-145.69;79.29;72481.03;5093585;28;20202;-81
2022/02/06 09:04:12;;;;;;;5.57;1.27;;;;;;;-145.69;78.64;72449.19;5092700;28;20202;-80
2022/02/06 09:06:38;;;;;;;6.83;1.27;;;;;;;-145.69;79.33;72453.19;5094940;28;20699;-80
2022/02/06 09:09:05;;;;;;;6.43;1.10;;;;;;;-145.69;79.42;72491.00;5096472;28;20198;-80
2022/02/06 09:11:32;;;;;;;5.80;1.20;;;;;;;-145.69;80.75;72483.03;5096343;28;20209;-80
2022/02/06 09:13:59;;;;;;;11.10;1.10;;;;;;;-145.69;79.66;72481.03;5096160;28;20207;-79
2022/02/06 09:16:26;;;;;;;2.93;1.20;;;;;;;-145.69;80.59;72502.94;5096063;28;20198;-80
2022/02/06 09:18:53;;;;;;;6.67;1.10;;;;;;;-145.69;79.94;72506.91;5096341;28;20541;-80
2022/02/06 09:21:23;;;;;;;7.33;1.47;;;;;;;-145.69;80.70;72469.09;5112679;28;20193;-80
2022/02/06 09:23:49;;;;;;;3.43;0.80;;;;;;;-145.69;80.73;72496.97;5116899;28;20205;-80
2022/02/06 09:26:16;;;;;;;5.30;1.10;;;;;;;-145.69;81.39;72481.03;5116751;28;20843;-80
2022/02/06 09:28:44;;;;;;;3.23;0.90;;;;;;;-145.69;81.60;72471.09;5116700;28;20237;-79
2022/02/06 09:31:11;;;;;;;9.77;1.33;;;;;;;-145.69;80.66;72465.13;5116421;28;20541;-79
2022/02/06 09:36:03;;;;;;;6.27;1.17;;;;;;;-145.69;79.39;72421.34;5116340;28;20208;-78
2022/02/06 09:38:31;;;;;;;3.70;1.03;;;;;;;-145.69;79.44;72409.38;5116246;28;20197;-79
2022/02/06 09:40:58;;;;;;;4.63;1.23;;;;;;;-145.69;79.58;72419.34;5116124;28;20213;-78
2022/02/06 09:43:24;;;;;;;5.60;1.40;;;;;;;-145.69;79.61;72423.31;5115802;28;20259;-79
2022/02/06 09:45:51;;;;;;;8.10;1.37;;;;;;;-145.69;79.73;72453.19;5115939;28;20225;-78
2022/02/06 09:48:18;;;;;;;2.97;1.10;;;;;;;-145.69;79.61;72457.16;5116174;28;20571;-78
2022/02/06 09:50:45;;;;;;;2.87;1.20;;;;;;;-145.69;80.30;72437.25;5100629;28;20226;-79
2022/02/06 09:53:12;;;;;;;10.00;4.07;;;;;;;-145.69;80.63;72451.19;5095495;28;20199;-79
2022/02/06 09:55:42;;;;;;;5.70;1.10;;;;;;;-145.69;79.50;72425.31;5095284;28;20202;-79
2022/02/06 09:58:29;;;;;;;5.70;1.40;;;;;;;-145.69;79.73;72437.25;5095669;28;20202;-79
2022/02/06 10:00:55;;;;;;;4.80;1.20;;;;;;;-145.69;80.07;72433.28;5096740;28;20198;-79
2022/02/06 10:03:24;;;;;;;7.00;1.37;;;;;;;-145.69;80.13;72437.25;5095346;28;20206;-80
2022/02/06 10:05:51;;;;;;;6.37;1.13;;;;;;;-145.69;80.52;72441.25;5095254;28;20229;-79
2022/02/06 10:08:27;;;;;;;4.77;1.70;;;;;;;-145.69;80.16;72433.28;5095165;28;20199;-80
2022/02/06 10:11:03;;;;;;;4.07;1.27;;;;;;;-145.69;81.84;72445.22;5095062;28;20575;-79
2022/02/06 10:13:34;;;;;;;4.30;1.73;;;;;;;-145.69;80.34;72427.31;5095237;28;20198;-79
2022/02/06 10:16:01;;;;;;;5.70;1.30;;;;;;;-145.69;81.78;72437.25;5095227;28;20247;-80
2022/02/06 10:18:28;;;;;;;5.50;1.37;;;;;;;-145.69;81.40;72423.31;5094492;28;20565;-79
2022/02/06 10:20:55;;;;;;;5.93;1.20;;;;;;;-145.69;80.69;72417.34;5110852;28;20205;-80
2022/02/06 10:23:30;;;;;;;4.63;1.07;;;;;;;-145.69;81.35;72409.38;5115293;28;20250;-78
2022/02/06 10:26:06;;;;;;;2.80;1.30;;;;;;;-145.69;81.11;72393.47;5115409;28;20265;-78
2022/02/06 10:28:37;;;;;;;5.03;1.17;;;;;;;-145.69;80.54;72377.53;5113426;28;20193;-80
2022/02/06 10:31:05;;;;;;;4.57;1.07;;;;;;;-145.69;80.65;72369.59;5103949;28;20193;-80
2022/02/06 10:33:46;;;;;;;6.57;1.40;;;;;;;-145.69;80.61;72341.72;5115237;28;20548;-79
2022/02/06 10:36:13;;;;;;;4.47;1.13;;;;;;;-145.69;79.84;72343.72;5115273;28;20197;-78
2022/02/06 10:38:39;;;;;;;2.33;1.10;;;;;;;-145.69;79.95;72329.78;5114777;28;20709;-79
2022/02/06 10:41:11;;;;;;;9.27;1.03;;;;;;;-145.69;80.76;72309.88;5114713;28;20678;-80
2022/02/06 10:43:53;;;;;;;2.30;0.90;;;;;;;-145.69;80.20;72309.88;5114676;28;20198;-80
2022/02/06 10:46:19;;;;;;;4.47;1.20;;;;;;;-145.69;80.47;72331.78;5114886;28;20228;-80
2022/02/06 10:48:48;;;;;;;6.30;1.10;;;;;;;-145.69;80.27;72323.81;5110989;28;20201;-80
2022/02/06 10:51:36;;;;;;;7.77;1.73;;;;;;;-145.69;80.30;72305.91;5114766;28;20248;-79
2022/02/06 10:54:03;;;;;;;4.03;1.90;;;;;;;-145.69;80.81;72301.91;5114570;28;20201;-79
2022/02/06 10:56:31;;;;;;;9.93;1.77;;;;;;;-145.69;80.58;72305.91;5115193;28;20205;-78
2022/02/06 10:59:00;;;;;;;4.17;1.10;;;;;;;-145.69;81.62;72311.88;5112337;28;20190;-79
2022/02/06 11:01:29;;;;;;;6.87;1.53;;;;;;;-145.69;81.59;72307.88;5096133;28;20289;-79
2022/02/06 11:04:07;;;;;;;6.67;2.27;;;;;;;-145.69;81.45;72323.81;5114425;28;20276;-79
2022/02/06 11:06:43;;;;;;;3.13;1.20;;;;;;;-145.69;81.84;72329.78;5114065;28;20217;-80
2022/02/06 11:09:22;;;;;;;4.57;1.10;;;;;;;-145.69;81.89;72319.81;5114312;28;20670;-79
2022/02/06 11:11:50;;;;;;;3.47;1.57;;;;;;;-145.69;81.99;72297.94;5114371;28;20208;-79
2022/02/06 11:14:16;;;;;;;8.30;1.67;;;;;;;-145.69;83.06;72270.06;5114266;28;20200;-81
2022/02/06 11:16:44;;;;;;;4.73;1.47;;;;;;;-145.69;81.96;72282.00;5114077;28;20205;-79
2022/02/06 11:19:18;;;;;;;7.27;1.50;;;;;;;-145.69;81.97;72260.13;5114129;28;20201;-81
2022/02/06 11:21:44;;;;;;;4.83;1.67;;;;;;;-145.69;82.91;72238.22;5114100;28;20205;-81
2022/02/06 11:24:20;;;;;;;8.37;1.80;;;;;;;-145.69;81.27;72240.22;5114229;28;20204;-79
2022/02/06 11:26:47;;;;;;;2.97;1.20;;;;;;;-145.69;81.35;72240.22;5114032;28;20224;-79
2022/02/06 11:29:15;;;;;;;7.60;1.20;;;;;;;-145.69;81.71;72212.34;5097568;28;20653;-79
2022/02/06 11:31:42;;;;;;;3.77;1.33;;;;;;;-145.69;80.15;72200.41;5095668;28;20224;-81
2022/02/06 11:34:12;;;;;;;3.97;1.07;;;;;;;-145.69;82.43;72202.41;5113691;28;20679;-77
2022/02/06 11:45:29;;;;;;;5.90;1.00;;;;;;;-145.69;80.73;72182.50;5113887;28;20220;-78
2022/02/06 11:48:01;;;;;;;7.50;1.23;;;;;;;-145.69;80.91;72158.63;5111889;28;20257;-79
2022/02/06 11:50:30;;;;;;;2.03;1.07;;;;;;;-145.69;81.08;72170.56;5102038;28;20612;-78
2022/02/06 11:52:58;;;;;;;1.80;0.93;;;;;;;-145.69;81.45;72186.47;5096348;28;20661;-78
2022/02/06 11:55:36;;;;;;;3.47;1.00;;;;;;;-145.69;81.34;72154.63;5093212;28;20206;-80
2022/02/06 11:58:25;;;;;;;7.27;1.23;;;;;;;-145.69;81.34;72170.56;5093302;28;20238;-80
2022/02/06 12:01:25;;;;;;;4.63;0.90;;;;;;;-145.69;81.20;72154.63;5093273;28;20550;-79
2022/02/06 12:04:07;;;;;;;2.20;0.93;;;;;;;-145.69;82.04;72174.53;5093342;28;20255;-79
2022/02/06 12:06:57;;;;;;;1.70;0.90;;;;;;;-145.69;80.86;72152.66;5090137;28;20232;-80
2022/02/06 12:09:26;;;;;;;63.33;19.10;;;;;;;-145.69;81.46;72142.69;5092992;28;20672;-79
2022/02/06 12:12:11;;;;;;;6.83;2.83;;;;;;;-145.69;81.69;72146.69;5093123;28;20241;-80
2022/02/06 12:14:43;;;;;;;8.50;1.40;;;;;;;-145.69;82.08;72144.69;5091715;28;20201;-80
2022/02/06 12:17:19;;;;;;;3.43;1.50;;;;;;;-145.69;81.84;72122.78;5092975;28;20229;-80
2022/02/06 12:20:07;;;;;;;4.50;2.10;;;;;;;-145.69;80.59;72118.81;5093102;28;20218;-80
2022/02/06 12:22:40;;;;;;;4.40;1.73;;;;;;;-145.69;80.94;72110.84;5093011;28;20220;-79
2022/02/06 12:25:25;;;;;;;5.53;1.10;;;;;;;-145.69;79.89;72108.84;5092852;28;20592;-79
2022/02/06 12:27:53;;;;;;;1.87;1.00;;;;;;;-145.69;79.40;72082.97;5092728;28;20750;-80
2022/02/06 12:30:22;;;;;;;1.97;0.90;;;;;;;-145.69;78.82;72082.97;5093116;28;20194;-79
2022/02/06 12:32:49;;;;;;;2.30;0.87;;;;;;;-145.69;78.31;72059.09;5093196;28;20233;-79
2022/02/06 12:38:06;;;;;;;5.03;1.87;;;;;;;-145.69;76.95;72041.19;5092968;28;20209;-79
2022/02/06 12:40:33;;;;;;;3.20;1.90;;;;;;;-145.69;77.69;72045.16;5093879;28;20593;-79
2022/02/06 12:43:02;;;;;;;3.23;1.20;;;;;;;-145.69;78.68;72015.31;5097208;28;20198;-80
2022/02/06 12:45:31;;;;;;;5.30;1.30;;;;;;;-145.69;75.26;71989.44;5115419;28;20193;-80
2022/02/06 12:48:02;;;;;;;1.97;1.10;;;;;;;-145.69;76.66;72005.38;5117364;28;20225;-81
2022/02/06 12:50:30;;;;;;;2.07;0.80;;;;;;;-145.69;77.29;71983.47;5113136;28;20261;-79
2022/02/06 12:52:58;;;;;;;2.03;1.00;;;;;;;-145.69;75.49;71963.56;5104837;28;20201;-80
2022/02/06 12:55:28;;;;;;;2.97;0.87;;;;;;;-145.69;74.61;71957.59;5117010;28;20686;-79